createdAt,value
2023-02-17T00:02:01.444Z,100673.97
2023-02-17T00:04:32.853Z,100673.34
2023-02-17T00:07:02.941Z,100664.77
2023-02-17T00:09:33.043Z,100664.66
2023-02-17T00:12:02.877Z,100662.09
2023-02-17T00:14:32.738Z,100660.84
2023-02-17T00:17:02.610Z,100666.73
2023-02-17T00:19:32.400Z,100667.50
2023-02-17T00:22:03.127Z,100670.66
2023-02-17T00:24:34.646Z,100665.34
2023-02-17T00:27:04.610Z,100666.02
2023-02-17T00:29:35.036Z,100664.98
2023-02-17T00:32:06.368Z,100665.78
2023-02-17T00:34:36.224Z,100660.21
2023-02-17T00:37:06.621Z,100663.20
2023-02-17T00:39:36.403Z,100659.48
2023-02-17T00:42:06.720Z,100652.20
2023-02-17T00:44:36.663Z,100658.10
2023-02-17T00:47:06.530Z,100658.10
2023-02-17T00:49:36.392Z,100655.23
2023-02-17T00:52:06.911Z,100655.23
2023-02-17T00:54:36.707Z,100653.57
2023-02-17T00:57:06.596Z,100647.97
2023-02-17T00:59:36.858Z,100648.02
2023-02-17T01:02:08.394Z,100653.20
2023-02-17T01:04:38.625Z,100652.88
2023-02-17T01:07:08.658Z,100645.86
2023-02-17T01:09:38.452Z,100645.86
2023-02-17T01:12:07.974Z,100644.46
2023-02-17T01:14:37.765Z,100638.47
2023-02-17T01:17:07.291Z,100636.95
2023-02-17T01:19:37.104Z,100636.95
2023-02-17T01:22:07.008Z,100635.31
2023-02-17T01:24:36.812Z,100628.83
2023-02-17T01:27:07.159Z,100627.91
2023-02-17T01:29:37.050Z,100628.51
2023-02-17T01:32:06.978Z,100617.48
2023-02-17T01:34:38.240Z,100614.34
2023-02-17T01:37:08.708Z,100611.47
2023-02-17T01:39:38.611Z,100610.38
2023-02-17T01:42:09.919Z,100611.50
2023-02-17T01:44:42.477Z,100612.31
2023-02-17T01:47:13.784Z,100613.03
2023-02-17T01:49:43.677Z,100603.50
2023-02-17T01:52:23.851Z,100594.46
2023-02-17T01:54:59.396Z,100594.10
2023-02-17T01:57:32.449Z,100594.03
2023-02-17T02:00:03.269Z,100592.01
2023-02-17T02:02:34.987Z,100584.47
2023-02-17T02:05:05.552Z,100575.71
2023-02-17T02:07:38.954Z,100571.31
2023-02-17T02:10:13.089Z,100572.28
2023-02-17T02:12:44.010Z,100569.23
2023-02-17T02:15:17.380Z,100561.11
2023-02-17T02:17:55.894Z,100558.78
2023-02-17T02:20:55.245Z,100556.37
2023-02-17T02:23:46.260Z,100553.03
2023-02-17T02:26:33.703Z,100549.48
2023-02-17T02:29:30.255Z,100542.05
2023-02-17T02:32:22.808Z,100533.10
2023-02-17T02:35:07.336Z,100537.08
2023-02-17T02:37:42.761Z,100526.94
2023-02-17T02:40:15.586Z,100526.94
2023-02-17T02:42:46.994Z,100522.31
2023-02-17T02:45:19.398Z,100526.64
2023-02-17T02:47:56.939Z,100517.03
2023-02-17T02:50:37.673Z,100512.28
2023-02-17T02:53:16.829Z,100508.66
2023-02-17T02:56:26.425Z,100504.17
2023-02-17T02:59:11.051Z,100504.17
2023-02-17T03:01:52.939Z,100499.39
2023-02-17T03:04:30.571Z,100496.87
2023-02-17T03:07:19.781Z,100498.28
2023-02-17T03:09:58.783Z,100502.38
2023-02-17T03:12:29.564Z,100501.19
2023-02-17T03:15:05.099Z,100494.48
2023-02-17T03:17:35.292Z,100495.08
2023-02-17T03:20:08.333Z,100487.95
2023-02-17T03:22:41.316Z,100487.95
2023-02-17T03:25:10.826Z,100498.34
2023-02-17T03:27:40.770Z,100502.68
2023-02-17T03:30:11.264Z,100501.50
2023-02-17T03:32:41.890Z,100494.67
2023-02-17T03:35:12.160Z,100498.41
2023-02-17T03:37:42.500Z,100492.88
2023-02-17T03:40:12.952Z,100487.30
2023-02-17T03:42:42.688Z,100489.73
2023-02-17T03:45:14.063Z,100489.57
2023-02-17T03:47:43.845Z,100493.98
2023-02-17T03:50:13.665Z,100489.86
2023-02-17T03:52:43.454Z,100492.88
2023-02-17T03:55:13.248Z,100486.84
2023-02-17T03:57:43.045Z,100482.47
2023-02-17T04:00:13.505Z,100477.95
2023-02-17T04:02:44.285Z,100477.16
2023-02-17T04:05:13.159Z,100473.88
2023-02-17T04:07:43.085Z,100482.10
2023-02-17T04:10:13.116Z,100478.88
2023-02-17T04:12:43.002Z,100488.52
2023-02-17T04:15:12.743Z,100485.56
2023-02-17T04:17:42.601Z,100483.26
2023-02-17T04:20:12.826Z,100469.16
2023-02-17T04:22:42.433Z,100471.14
2023-02-17T04:25:11.951Z,100471.73
2023-02-17T04:27:41.802Z,100465.38
2023-02-17T04:30:12.589Z,100455.42
2023-02-17T04:32:42.411Z,100452.36
2023-02-17T04:35:12.200Z,100444.38
2023-02-17T04:37:42.070Z,100450.72
2023-02-17T04:40:12.415Z,100446.02
2023-02-17T04:42:42.080Z,100446.15
2023-02-17T04:45:12.426Z,100443.47
2023-02-17T04:47:42.277Z,100434.89
2023-02-17T04:50:12.512Z,100446.89
2023-02-17T04:52:42.146Z,100444.41
2023-02-17T04:55:12.103Z,100441.39
2023-02-17T04:57:41.945Z,100437.88
2023-02-17T05:00:12.501Z,100437.88
2023-02-17T05:02:42.293Z,100427.70
2023-02-17T05:05:13.982Z,100429.52
2023-02-17T05:07:44.750Z,100421.92
2023-02-17T05:10:15.913Z,100418.45
2023-02-17T05:12:45.870Z,100423.20
2023-02-17T05:15:15.653Z,100420.93
2023-02-17T05:17:45.543Z,100423.44
2023-02-17T05:20:15.205Z,100421.05
2023-02-17T05:22:45.058Z,100418.38
2023-02-17T05:25:14.597Z,100418.91
2023-02-17T05:27:44.436Z,100418.40
2023-02-17T05:30:14.882Z,100408.90
2023-02-17T05:32:45.101Z,100402.70
2023-02-17T05:35:14.984Z,100403.98
2023-02-17T05:37:44.814Z,100403.69
2023-02-17T05:40:14.838Z,100397.06
2023-02-17T05:42:44.829Z,100395.86
2023-02-17T05:45:14.422Z,100390.13
2023-02-17T05:47:44.396Z,100389.09
2023-02-17T05:50:13.945Z,100386.39
2023-02-17T05:52:44.035Z,100381.56
2023-02-17T05:55:13.664Z,100381.39
2023-02-17T05:57:43.443Z,100382.23
2023-02-17T06:00:13.705Z,100387.88
2023-02-17T06:02:43.301Z,100388.72
2023-02-17T06:05:12.930Z,100399.73
2023-02-17T06:07:43.184Z,100399.73
2023-02-17T06:10:13.197Z,100403.28
2023-02-17T06:12:43.050Z,100398.34
2023-02-17T06:15:13.195Z,100393.79
2023-02-17T06:17:42.981Z,100393.05
2023-02-17T06:20:13.336Z,100394.36
2023-02-17T06:22:44.177Z,100398.28
2023-02-17T06:25:14.369Z,100396.67
2023-02-17T06:27:44.309Z,100397.30
2023-02-17T06:30:15.011Z,100389.58
2023-02-17T06:32:46.458Z,100389.57
2023-02-17T06:35:16.505Z,100390.42
2023-02-17T06:37:46.385Z,100386.71
2023-02-17T06:40:16.557Z,100386.71
2023-02-17T06:42:46.737Z,100382.92
2023-02-17T06:45:17.118Z,100384.86
2023-02-17T06:47:47.239Z,100382.23
2023-02-17T06:50:17.084Z,100378.61
2023-02-17T06:52:46.938Z,100379.00
2023-02-17T06:55:16.540Z,100382.16
2023-02-17T06:57:46.337Z,100377.22
2023-02-17T07:00:16.188Z,100373.88
2023-02-17T07:02:46.142Z,100377.11
2023-02-17T07:05:16.140Z,100368.66
2023-02-17T07:07:46.271Z,100377.42
2023-02-17T07:10:16.170Z,100374.88
2023-02-17T07:12:45.977Z,100375.56
2023-02-17T07:15:15.591Z,100384.64
2023-02-17T07:17:45.403Z,100374.83
2023-02-17T07:20:16.977Z,100367.70
2023-02-17T07:22:46.806Z,100366.25
2023-02-17T07:25:16.417Z,100361.02
2023-02-17T07:27:46.210Z,100360.61
2023-02-17T07:30:16.052Z,100365.56
2023-02-17T07:32:46.292Z,100366.11
2023-02-17T07:35:15.785Z,100361.22
2023-02-17T07:37:45.622Z,100360.17
2023-02-17T07:40:15.321Z,100353.82
2023-02-17T07:42:45.173Z,100353.44
2023-02-17T07:45:15.683Z,100350.41
2023-02-17T07:47:45.821Z,100354.74
2023-02-17T07:50:15.753Z,100347.79
2023-02-17T07:52:45.593Z,100359.12
2023-02-17T07:55:15.136Z,100352.59
2023-02-17T07:57:44.970Z,100347.26
2023-02-17T08:00:15.250Z,100348.78
2023-02-17T08:02:45.976Z,100346.19
2023-02-17T08:05:15.743Z,100346.19
2023-02-17T08:07:45.603Z,100343.98
2023-02-17T08:10:32.772Z,100332.58
2023-02-17T08:13:20.447Z,100339.53
2023-02-17T08:15:50.299Z,100339.27
2023-02-17T08:18:19.857Z,100337.20
2023-02-17T08:20:50.454Z,100335.03
2023-02-17T08:23:22.014Z,100335.03
2023-02-17T08:25:51.813Z,100333.34
2023-02-17T08:28:21.688Z,100335.56
2023-02-17T08:30:51.878Z,100337.84
2023-02-17T08:33:21.683Z,100333.31
2023-02-17T08:35:51.780Z,100338.60
2023-02-17T08:38:21.267Z,100336.64
2023-02-17T08:40:51.169Z,100332.02
2023-02-17T08:43:20.664Z,100327.63
2023-02-17T08:45:50.714Z,100324.72
2023-02-17T08:48:20.519Z,100315.30
2023-02-17T08:50:50.325Z,100312.23
2023-02-17T08:53:20.137Z,100305.92
2023-02-17T08:55:50.082Z,100303.20
2023-02-17T08:58:19.675Z,100297.75
2023-02-17T09:00:49.495Z,100307.61
2023-02-17T09:03:19.521Z,100314.30
2023-02-17T09:05:50.605Z,100315.61
2023-02-17T09:08:20.879Z,100312.43
2023-02-17T09:10:51.155Z,100309.04
2023-02-17T09:13:20.974Z,100306.13
2023-02-17T09:15:52.545Z,100311.48
2023-02-17T09:18:23.021Z,100306.78
2023-02-17T09:20:53.265Z,100313.84
2023-02-17T09:23:22.963Z,100313.84
2023-02-17T09:25:54.303Z,100312.97
2023-02-17T09:28:24.107Z,100307.12
2023-02-17T09:30:54.090Z,100308.55
2023-02-17T09:33:25.235Z,100306.38
2023-02-17T09:35:55.316Z,100308.17
2023-02-17T09:38:25.592Z,100301.96
2023-02-17T09:40:56.997Z,100301.49
2023-02-17T09:43:30.334Z,100291.98
2023-02-17T09:46:02.967Z,100297.44
2023-02-17T09:48:35.602Z,100291.42
2023-02-17T09:51:24.325Z,100291.23
2023-02-17T09:53:57.194Z,100286.62
2023-02-17T09:56:36.548Z,100286.87
2023-02-17T09:59:24.594Z,100283.01
2023-02-17T10:01:56.423Z,100283.14
2023-02-17T10:04:29.705Z,100284.23
2023-02-17T10:07:14.491Z,100277.55
2023-02-17T10:09:50.452Z,100278.30
2023-02-17T10:12:23.326Z,100270.67
2023-02-17T10:14:58.931Z,100271.65
2023-02-17T10:17:34.660Z,100259.02
2023-02-17T10:20:25.181Z,100262.02
2023-02-17T10:22:58.166Z,100255.52
2023-02-17T10:25:56.820Z,100256.66
2023-02-17T10:28:41.779Z,100224.90
2023-02-17T10:31:20.076Z,100245.27
2023-02-17T10:33:59.015Z,100250.56
2023-02-17T10:37:04.945Z,100237.08
2023-02-17T10:39:50.143Z,100234.70
2023-02-17T10:42:23.188Z,100236.02
2023-02-17T10:44:55.341Z,100236.23
2023-02-17T10:47:24.955Z,100228.30
2023-02-17T10:49:56.755Z,100228.57
2023-02-17T10:52:32.687Z,100213.42
2023-02-17T10:55:20.982Z,100210.95
2023-02-17T10:57:39.604Z,100210.95
2023-02-17T11:00:11.399Z,100198.64
2023-02-17T11:02:46.905Z,100195.16
2023-02-17T11:05:28.735Z,100181.30
2023-02-17T11:08:07.404Z,100181.30
2023-02-17T11:10:40.567Z,100173.78
2023-02-17T11:13:22.102Z,100169.08
2023-02-17T11:15:52.168Z,100166.58
2023-02-17T11:18:30.789Z,100166.41
2023-02-17T11:21:09.733Z,100157.28
2023-02-17T11:23:51.700Z,100154.45
2023-02-17T11:26:27.504Z,100149.74
2023-02-17T11:29:13.651Z,100146.83
2023-02-17T11:31:44.350Z,100147.50
2023-02-17T11:34:19.232Z,100135.02
2023-02-17T11:36:52.238Z,100126.73
2023-02-17T11:39:23.253Z,100122.35
2023-02-17T11:41:53.067Z,100113.75
2023-02-17T11:44:29.388Z,100094.67
2023-02-17T11:47:14.224Z,100094.67
2023-02-17T11:50:04.778Z,100097.73
2023-02-17T11:52:40.777Z,100081.20
2023-02-17T11:55:28.575Z,100059.90
2023-02-17T11:58:01.466Z,100059.90
2023-02-17T12:00:34.250Z,100060.41
2023-02-17T12:03:12.874Z,100053.27
2023-02-17T12:06:00.047Z,100053.27
2023-02-17T12:08:58.952Z,100046.72
2023-02-17T12:11:51.015Z,100027.63
2023-02-17T12:14:46.296Z,100027.63
2023-02-17T12:17:21.381Z,100016.95
2023-02-17T12:20:10.309Z,100010.69
2023-02-17T12:22:51.970Z,100008.06
2023-02-17T12:25:30.921Z,100009.50
2023-02-17T12:28:32.142Z,100004.32
2023-02-17T12:31:11.505Z,99997.85
2023-02-17T12:33:59.316Z,99995.92
2023-02-17T12:36:35.170Z,99992.30
2023-02-17T12:39:25.960Z,99990.27
2023-02-17T12:41:58.496Z,99993.09
2023-02-17T12:44:31.350Z,99983.59
2023-02-17T12:47:16.374Z,99979.63
2023-02-17T12:49:58.245Z,99966.64
2023-02-17T12:52:31.096Z,99957.81
2023-02-17T12:55:12.987Z,99948.83
2023-02-17T12:57:58.676Z,99955.55
2023-02-17T13:00:37.278Z,99952.64
2023-02-17T13:03:07.611Z,99942.88
2023-02-17T13:05:40.396Z,99939.86
2023-02-17T13:08:13.206Z,99939.86
2023-02-17T13:10:43.244Z,99934.95
2023-02-17T13:13:15.499Z,99926.16
2023-02-17T13:15:47.663Z,99925.05
2023-02-17T13:18:31.688Z,99923.46
2023-02-17T13:21:20.443Z,99919.64
2023-02-17T13:24:17.151Z,99917.62
2023-02-17T13:26:46.946Z,99904.02
2023-02-17T13:29:22.490Z,99900.51
2023-02-17T13:31:55.753Z,99895.51
2023-02-17T13:34:43.478Z,99891.33
2023-02-17T13:37:28.277Z,99889.06
2023-02-17T13:39:58.110Z,99887.83
2023-02-17T13:42:34.238Z,99885.67
2023-02-17T13:45:15.930Z,99883.03
2023-02-17T13:47:48.575Z,99866.94
2023-02-17T13:50:36.362Z,99871.87
2023-02-17T13:53:24.725Z,99870.20
2023-02-17T13:56:00.317Z,99868.98
2023-02-17T13:58:38.711Z,99859.11
2023-02-17T14:01:11.874Z,99843.83
2023-02-17T14:03:44.720Z,99837.33
2023-02-17T14:06:23.427Z,99828.45
2023-02-17T14:08:54.252Z,99831.01
2023-02-17T14:11:27.216Z,99823.91
2023-02-17T14:13:58.764Z,99817.05
2023-02-17T14:16:37.068Z,99802.11
2023-02-17T14:19:18.952Z,99805.45
2023-02-17T14:22:04.224Z,99798.85
2023-02-17T14:24:36.947Z,99788.30
2023-02-17T14:27:13.364Z,99788.41
2023-02-17T14:29:45.712Z,99782.30
2023-02-17T14:32:36.263Z,99780.61
2023-02-17T14:35:18.337Z,99774.39
2023-02-17T14:37:48.644Z,99770.80
2023-02-17T14:40:21.368Z,99761.88
2023-02-17T14:42:52.173Z,99761.54
2023-02-17T14:45:22.755Z,99753.77
2023-02-17T14:47:52.320Z,99741.89
2023-02-17T14:50:21.792Z,99746.92
2023-02-17T14:52:52.435Z,99735.20
2023-02-17T14:55:39.780Z,99732.33
2023-02-17T14:58:12.594Z,99729.58
2023-02-17T15:00:42.399Z,99736.53
2023-02-17T15:03:11.996Z,99736.53
2023-02-17T15:05:42.266Z,99727.78
2023-02-17T15:08:17.524Z,99715.57
2023-02-17T15:10:48.010Z,99710.41
2023-02-17T15:13:20.775Z,99700.22
2023-02-17T15:15:50.833Z,99691.59
2023-02-17T15:18:22.031Z,99682.33
2023-02-17T15:20:53.915Z,99682.33
2023-02-17T15:23:26.381Z,99673.09
2023-02-17T15:25:57.326Z,99664.81
2023-02-17T15:28:27.144Z,99659.77
2023-02-17T15:30:57.684Z,99652.32
2023-02-17T15:33:27.939Z,99639.00
2023-02-17T15:35:58.037Z,99633.72
2023-02-17T15:38:27.857Z,99642.48
2023-02-17T15:40:58.797Z,99637.31
2023-02-17T15:46:07.883Z,99622.34
2023-02-17T15:48:39.176Z,99633.98
2023-02-17T15:51:12.273Z,99633.84
2023-02-17T15:53:43.017Z,99622.19
2023-02-17T15:56:20.462Z,99629.16
2023-02-17T15:58:51.598Z,99627.59
2023-02-17T16:01:33.234Z,99630.23
2023-02-17T16:04:03.365Z,99630.59
2023-02-17T16:06:33.120Z,99637.70
2023-02-17T16:09:02.925Z,99637.70
2023-02-17T16:11:34.418Z,99638.42
2023-02-17T16:14:04.466Z,99646.32
2023-02-17T16:16:36.082Z,99650.88
2023-02-17T16:19:06.741Z,99657.48
2023-02-17T16:21:36.580Z,99655.20
2023-02-17T16:24:07.014Z,99648.84
2023-02-17T16:26:39.802Z,99645.87
2023-02-17T16:29:21.195Z,99645.87
2023-02-17T16:31:52.462Z,99653.43
2023-02-17T16:34:22.585Z,99647.17
2023-02-17T16:36:55.040Z,99648.75
2023-02-17T16:39:25.031Z,99649.59
2023-02-17T16:41:54.840Z,99655.44
2023-02-17T16:44:24.616Z,99659.40
2023-02-17T16:46:56.317Z,99656.05
2023-02-17T16:49:30.630Z,99659.73
2023-02-17T16:52:01.756Z,99655.92
2023-02-17T16:54:30.590Z,99655.83
2023-02-17T16:57:00.535Z,99663.47
2023-02-17T16:59:30.053Z,99664.30
2023-02-17T17:01:59.864Z,99659.16
2023-02-17T17:04:29.617Z,99666.98
2023-02-17T17:06:59.498Z,99661.57
2023-02-17T17:09:30.613Z,99657.49
2023-02-17T17:12:00.422Z,99665.17
2023-02-17T17:14:30.189Z,99662.92
2023-02-17T17:17:02.373Z,99662.92
2023-02-17T17:19:32.150Z,99653.55
2023-02-17T17:22:02.638Z,99669.22
2023-02-17T17:24:32.419Z,99665.25
2023-02-17T17:27:02.426Z,99643.84
2023-02-17T17:29:32.490Z,99643.63
2023-02-17T17:32:02.443Z,99638.31
2023-02-17T17:34:32.242Z,99636.77
2023-02-17T17:37:02.113Z,99638.72
2023-02-17T17:39:31.866Z,99639.44
2023-02-17T17:42:01.679Z,99646.83
2023-02-17T17:44:31.610Z,99638.69
2023-02-17T17:47:01.310Z,99633.24
2023-02-17T17:49:31.389Z,99638.77
2023-02-17T17:52:01.172Z,99636.89
2023-02-17T17:54:31.117Z,99640.32
2023-02-17T17:57:01.339Z,99642.22
2023-02-17T17:59:31.129Z,99640.38
2023-02-17T18:02:01.076Z,99649.61
2023-02-17T18:04:30.910Z,99640.95
2023-02-17T18:07:00.891Z,99649.81
2023-02-17T18:09:33.788Z,99641.94
2023-02-17T18:12:12.623Z,99645.70
2023-02-17T18:14:44.216Z,99635.20
2023-02-17T18:17:14.493Z,99622.71
2023-02-17T18:19:43.921Z,99628.30
2023-02-17T18:22:13.869Z,99625.23
2023-02-17T18:24:45.149Z,99626.34
2023-02-17T18:27:15.907Z,99605.39
2023-02-17T18:29:45.919Z,99613.70
2023-02-17T18:32:15.421Z,99614.05
2023-02-17T18:34:45.196Z,99598.13
2023-02-17T18:37:15.929Z,99602.67
2023-02-17T18:39:45.794Z,99600.78
2023-02-17T18:42:15.345Z,99599.39
2023-02-17T18:44:45.541Z,99609.30
2023-02-17T18:47:15.320Z,99605.70
2023-02-17T18:49:46.698Z,99598.09
2023-02-17T18:52:16.185Z,99596.59
2023-02-17T18:54:46.766Z,99597.26
2023-02-17T18:57:16.251Z,99590.45
2023-02-17T18:59:46.230Z,99607.39
2023-02-17T19:02:15.823Z,99604.17
2023-02-17T19:04:46.141Z,99609.83
2023-02-17T19:07:15.649Z,99623.66
2023-02-17T19:09:45.493Z,99614.58
2023-02-17T19:12:15.174Z,99622.54
2023-02-17T19:14:45.504Z,99616.39
2023-02-17T19:17:16.661Z,99621.21
2023-02-17T19:19:46.450Z,99616.25
2023-02-17T19:22:16.423Z,99643.70
2023-02-17T19:24:46.466Z,99636.05
2023-02-17T19:27:15.976Z,99653.34
2023-02-17T19:29:45.831Z,99654.56
2023-02-17T19:32:15.553Z,99665.39
2023-02-17T19:34:45.330Z,99693.53
2023-02-17T19:37:15.551Z,99693.53
2023-02-17T19:39:45.709Z,99690.94
2023-02-17T19:42:15.246Z,99691.50
2023-02-17T19:44:45.155Z,99695.61
2023-02-17T19:47:14.785Z,99695.62
2023-02-17T19:49:44.670Z,99684.41
2023-02-17T19:52:14.473Z,99682.95
2023-02-17T19:54:44.224Z,99687.28
2023-02-17T19:57:17.592Z,99680.03
2023-02-17T19:59:47.497Z,99688.52
2023-02-17T20:02:17.463Z,99682.42
2023-02-17T20:04:47.242Z,99696.55
2023-02-17T20:07:16.792Z,99703.63
2023-02-17T20:09:46.574Z,99707.25
2023-02-17T20:12:17.612Z,99728.06
2023-02-17T20:14:47.402Z,99731.30
2023-02-17T20:17:17.375Z,99715.78
2023-02-17T20:19:47.514Z,99705.70
2023-02-17T20:22:17.305Z,99715.70
2023-02-17T20:24:47.084Z,99705.23
2023-02-17T20:27:16.910Z,99705.01
2023-02-17T20:29:46.680Z,99701.02
2023-02-17T20:32:16.564Z,99701.02
2023-02-17T20:34:46.395Z,99694.88
2023-02-17T20:37:16.033Z,99693.00
2023-02-17T20:39:45.859Z,99693.53
2023-02-17T20:42:15.851Z,99693.20
2023-02-17T20:44:45.850Z,99706.20
2023-02-17T20:47:15.473Z,99691.01
2023-02-17T20:49:45.226Z,99691.91
2023-02-17T20:52:14.908Z,99682.97
2023-02-17T20:54:45.124Z,99687.75
2023-02-17T20:57:16.372Z,99687.11
2023-02-17T20:59:46.235Z,99693.23
2023-02-17T21:02:16.055Z,99689.59
2023-02-17T21:04:46.821Z,99684.06
2023-02-17T21:07:16.957Z,99684.43
2023-02-17T21:09:46.937Z,99698.85
2023-02-17T21:12:16.712Z,99688.23
2023-02-17T21:14:47.510Z,99693.00
2023-02-17T21:17:18.795Z,99706.45
2023-02-17T21:19:48.792Z,99708.59
2023-02-17T21:22:18.333Z,99709.41
2023-02-17T21:24:48.153Z,99726.06
2023-02-17T21:27:17.633Z,99714.75
2023-02-17T21:29:47.643Z,99734.83
2023-02-17T21:32:17.735Z,99720.07
2023-02-17T21:34:47.655Z,99722.36
2023-02-17T21:37:17.497Z,99740.02
2023-02-17T21:39:47.407Z,99753.14
2023-02-17T21:42:20.500Z,99754.23
2023-02-17T21:44:53.368Z,99742.98
2023-02-17T21:47:23.402Z,99754.12
2023-02-17T21:49:55.271Z,99752.44
2023-02-17T21:52:24.795Z,99753.47
2023-02-17T21:54:54.733Z,99760.93
2023-02-17T21:57:24.534Z,99757.84
2023-02-17T21:59:54.405Z,99753.02
2023-02-17T22:02:24.044Z,99749.65
2023-02-17T22:04:57.625Z,99773.19
2023-02-17T22:07:27.444Z,99780.05
2023-02-17T22:09:57.319Z,99816.75
2023-02-17T22:12:27.718Z,99833.02
2023-02-17T22:14:57.559Z,99835.55
2023-02-17T22:17:27.329Z,99856.16
2023-02-17T22:19:58.768Z,99834.76
2023-02-17T22:22:28.695Z,99842.15
2023-02-17T22:24:58.603Z,99845.36
2023-02-17T22:27:28.523Z,99820.73
2023-02-17T22:29:58.731Z,99831.17
2023-02-17T22:32:28.592Z,99836.57
2023-02-17T22:34:58.575Z,99833.05
2023-02-17T22:37:28.339Z,99833.42
2023-02-17T22:39:58.605Z,99848.45
2023-02-17T22:42:29.821Z,99842.50
2023-02-17T22:44:59.628Z,99829.36
2023-02-17T22:47:29.414Z,99831.88
2023-02-17T22:49:59.217Z,99837.52
2023-02-17T22:52:28.994Z,99831.15
2023-02-17T22:54:58.935Z,99840.30
2023-02-17T22:57:28.680Z,99842.44
2023-02-17T22:59:58.492Z,99847.88
2023-02-17T23:02:28.334Z,99852.06
2023-02-17T23:04:58.218Z,99858.66
2023-02-17T23:07:28.186Z,99855.52
2023-02-17T23:09:57.940Z,99860.06
2023-02-17T23:12:27.765Z,99850.61
2023-02-17T23:14:57.572Z,99866.66
2023-02-17T23:17:27.754Z,99867.39
2023-02-17T23:19:57.497Z,99867.39
2023-02-17T23:22:27.287Z,99877.65
2023-02-17T23:24:57.070Z,99866.19
2023-02-17T23:27:26.863Z,99871.23
2023-02-17T23:29:56.690Z,99882.50
2023-02-17T23:32:26.511Z,99878.50
2023-02-17T23:34:56.551Z,99878.67
2023-02-17T23:37:26.362Z,99872.23
2023-02-17T23:39:56.141Z,99883.14
2023-02-17T23:42:26.233Z,99881.82
2023-02-17T23:44:56.010Z,99883.10
2023-02-17T23:47:26.089Z,99891.90
2023-02-17T23:49:55.872Z,99887.29
2023-02-17T23:52:25.673Z,99890.66
2023-02-17T23:54:55.435Z,99900.16
2023-02-17T23:57:26.611Z,99908.05
2023-02-17T23:59:56.132Z,99914.87
